createdAt,value
2022-12-11T00:01:45.803Z,18.20
2022-12-11T00:04:57.723Z,14.17
2022-12-11T00:07:57.849Z,15.83
2022-12-11T00:11:09.736Z,15.13
2022-12-11T00:14:23.821Z,14.53
2022-12-11T00:17:47.817Z,17.00
2022-12-11T00:20:47.779Z,15.80
2022-12-11T00:24:12.823Z,17.20
2022-12-11T00:27:24.834Z,15.13
2022-12-11T00:30:50.851Z,17.05
2022-12-11T00:33:51.885Z,13.17
2022-12-11T00:37:04.909Z,16.90
2022-12-11T00:40:04.906Z,12.60
2022-12-11T00:43:16.833Z,12.43
2022-12-11T00:46:34.871Z,13.87
2022-12-11T00:49:49.945Z,16.57
2022-12-11T00:52:59.946Z,15.80
2022-12-11T00:56:11.941Z,14.50
2022-12-11T00:59:11.999Z,14.20
2022-12-11T01:02:38.997Z,13.90
2022-12-11T01:05:38.964Z,11.90
2022-12-11T01:08:51.976Z,11.70
2022-12-11T01:12:03.974Z,11.20
2022-12-11T01:15:28.031Z,13.65
2022-12-11T01:18:41.971Z,13.27
2022-12-11T01:21:55.026Z,14.97
2022-12-11T01:24:54.977Z,13.03
2022-12-11T01:28:20.000Z,12.90
2022-12-11T01:31:33.006Z,13.20
2022-12-11T01:34:59.065Z,15.70
2022-12-11T01:38:11.051Z,12.80
2022-12-11T01:41:38.088Z,12.77
2022-12-11T01:44:57.066Z,13.43
2022-12-11T01:48:22.130Z,12.23
2022-12-11T01:51:48.095Z,17.67
2022-12-11T01:55:12.355Z,18.63
2022-12-11T01:58:12.129Z,13.15
2022-12-11T02:01:39.129Z,12.23
2022-12-11T02:05:03.238Z,15.07
2022-12-11T02:08:17.124Z,13.50
2022-12-11T02:11:41.331Z,14.07
2022-12-11T02:14:53.158Z,11.85
2022-12-11T02:18:18.186Z,15.45
2022-12-11T02:21:31.188Z,12.47
2022-12-11T02:25:04.285Z,13.00
2022-12-11T02:28:16.199Z,12.93
2022-12-11T02:31:42.324Z,13.43
2022-12-11T02:34:59.163Z,11.80
2022-12-11T02:38:23.231Z,11.53
2022-12-11T02:41:35.253Z,10.97
2022-12-11T02:44:59.238Z,13.40
2022-12-11T02:48:13.207Z,13.60
2022-12-11T02:51:40.243Z,10.35
2022-12-11T02:54:52.272Z,10.83
2022-12-11T02:58:16.337Z,12.15
2022-12-11T03:01:28.400Z,14.20
2022-12-11T03:04:54.363Z,17.03
2022-12-11T03:08:06.330Z,12.07
2022-12-11T03:11:18.357Z,13.35
2022-12-11T03:14:30.344Z,12.33
2022-12-11T03:17:57.411Z,9.67
2022-12-11T03:21:23.306Z,11.77
2022-12-11T03:24:47.360Z,14.10
2022-12-11T03:27:59.408Z,18.70
2022-12-11T03:31:25.352Z,12.03
2022-12-11T03:34:37.333Z,11.50
2022-12-11T03:38:06.425Z,12.95
2022-12-11T03:41:18.445Z,17.57
2022-12-11T03:44:43.374Z,11.97
2022-12-11T03:47:55.457Z,14.53
2022-12-11T03:51:19.408Z,13.85
2022-12-11T03:54:33.415Z,12.73
2022-12-11T03:57:57.438Z,11.13
2022-12-11T04:00:57.446Z,12.53
2022-12-11T04:04:21.515Z,14.20
2022-12-11T04:07:33.523Z,14.87
2022-12-11T04:11:02.505Z,13.50
2022-12-11T04:14:03.503Z,16.93
2022-12-11T04:17:03.979Z,11.77
2022-12-11T04:20:10.636Z,15.27
2022-12-11T04:23:43.265Z,13.97
2022-12-11T04:26:57.550Z,13.57
2022-12-11T04:30:13.598Z,18.60
2022-12-11T04:33:25.495Z,13.55
2022-12-11T04:36:37.606Z,16.97
2022-12-11T04:39:37.593Z,17.00
2022-12-11T04:43:04.727Z,13.93
2022-12-11T04:46:16.656Z,15.47
2022-12-11T04:49:29.682Z,19.17
2022-12-11T04:52:41.659Z,15.63
2022-12-11T04:55:53.682Z,14.83
2022-12-11T04:59:10.646Z,17.37
2022-12-11T05:02:23.654Z,18.25
2022-12-11T05:05:35.697Z,14.87
2022-12-11T05:08:59.676Z,15.47
2022-12-11T05:11:59.717Z,14.50
2022-12-11T05:15:26.776Z,17.90
2022-12-11T05:18:26.762Z,16.45
2022-12-11T05:21:39.739Z,18.60
2022-12-11T05:24:39.711Z,12.77
2022-12-11T05:27:54.786Z,13.33
2022-12-11T05:31:08.870Z,14.63
2022-12-11T05:34:20.735Z,17.45
2022-12-11T05:37:20.767Z,18.43
2022-12-11T05:40:32.767Z,14.90
2022-12-11T05:43:32.848Z,19.17
2022-12-11T05:46:58.812Z,15.93
2022-12-11T05:49:59.848Z,14.80
2022-12-11T05:53:11.852Z,17.70
2022-12-11T05:56:25.833Z,15.55
2022-12-11T05:59:37.814Z,18.80
2022-12-11T06:02:51.963Z,16.20
2022-12-11T06:06:16.946Z,17.23
2022-12-11T06:09:28.937Z,15.40
2022-12-11T06:12:40.959Z,17.25
2022-12-11T06:15:40.912Z,19.03
2022-12-11T06:19:07.872Z,26.40
2022-12-11T06:22:07.922Z,17.87
2022-12-11T06:25:31.898Z,14.93
2022-12-11T06:28:32.979Z,18.33
2022-12-11T06:31:56.962Z,17.10
2022-12-11T06:35:11.154Z,18.47
2022-12-11T06:38:24.001Z,14.67
2022-12-11T06:41:35.935Z,17.90
2022-12-11T06:44:49.020Z,20.43
2022-12-11T06:47:49.025Z,16.33
2022-12-11T06:51:15.184Z,20.83
2022-12-11T06:54:15.032Z,18.73
2022-12-11T06:57:39.006Z,16.30
2022-12-11T07:00:39.040Z,21.50
2022-12-11T07:03:54.071Z,15.73
2022-12-11T07:07:11.067Z,12.60
2022-12-11T07:10:35.059Z,13.77
2022-12-11T07:13:35.047Z,18.77
2022-12-11T07:16:47.255Z,16.63
2022-12-11T07:19:59.072Z,22.20
2022-12-11T07:23:26.070Z,17.10
2022-12-11T07:26:38.149Z,19.23
2022-12-11T07:29:50.123Z,16.70
2022-12-11T07:32:52.242Z,16.45
2022-12-11T07:36:04.101Z,15.40
2022-12-11T07:39:18.140Z,14.03
2022-12-11T07:42:30.170Z,14.80
2022-12-11T07:45:42.270Z,14.80
2022-12-11T07:49:07.199Z,14.63
2022-12-11T07:52:07.315Z,17.47
2022-12-11T07:55:33.171Z,14.83
2022-12-11T07:58:33.214Z,18.47
2022-12-11T08:01:57.285Z,17.53
2022-12-11T08:05:09.429Z,17.17
2022-12-11T08:08:21.232Z,14.57
2022-12-11T08:11:47.623Z,14.10
2022-12-11T08:14:48.219Z,16.77
2022-12-11T08:18:01.277Z,15.77
2022-12-11T08:21:29.245Z,13.50
2022-12-11T08:24:44.299Z,13.57
2022-12-11T08:27:58.280Z,16.57
2022-12-11T08:31:10.404Z,15.55
2022-12-11T08:34:22.316Z,17.87
2022-12-11T08:37:34.304Z,18.07
2022-12-11T08:40:37.317Z,16.05
2022-12-11T08:44:12.959Z,18.30
2022-12-11T08:47:09.366Z,14.27
2022-12-11T08:50:24.445Z,16.00
2022-12-11T08:53:24.346Z,14.00
2022-12-11T08:56:48.794Z,14.47
2022-12-11T09:00:02.335Z,16.15
2022-12-11T09:03:26.386Z,13.87
2022-12-11T09:06:38.372Z,16.80
2022-12-11T09:09:50.504Z,14.50
2022-12-11T09:12:51.415Z,15.17
2022-12-11T09:16:17.558Z,16.90
2022-12-11T09:19:20.419Z,16.13
2022-12-11T09:22:33.446Z,16.60
2022-12-11T09:25:33.469Z,15.10
2022-12-11T09:28:58.461Z,16.10
2022-12-11T09:32:11.528Z,22.37
2022-12-11T09:35:24.500Z,13.30
2022-12-11T09:38:24.583Z,15.90
2022-12-11T09:42:00.585Z,16.85
2022-12-11T09:45:12.814Z,15.40
2022-12-11T09:48:38.525Z,15.07
2022-12-11T09:51:50.590Z,18.53
2022-12-11T09:55:14.561Z,13.60
2022-12-11T09:58:29.624Z,13.50
2022-12-11T10:01:54.589Z,18.50
2022-12-11T10:05:25.634Z,15.77
2022-12-11T10:08:37.621Z,17.07
2022-12-11T10:12:10.625Z,17.10
2022-12-11T10:15:24.647Z,19.10
2022-12-11T10:18:48.573Z,15.10
2022-12-11T10:22:06.697Z,14.57
2022-12-11T10:25:31.653Z,17.77
2022-12-11T10:28:43.706Z,16.20
2022-12-11T10:32:11.737Z,16.83
2022-12-11T10:35:26.702Z,18.80
2022-12-11T10:38:53.711Z,16.57
2022-12-11T10:42:05.647Z,16.80
2022-12-11T10:45:19.757Z,19.10
2022-12-11T10:48:31.857Z,14.13
2022-12-11T10:51:58.827Z,16.77
2022-12-11T10:55:12.937Z,15.27
2022-12-11T10:58:39.771Z,18.30
2022-12-11T11:01:51.816Z,16.23
2022-12-11T11:05:18.748Z,16.20
2022-12-11T11:08:37.809Z,17.07
2022-12-11T11:12:07.835Z,14.70
2022-12-11T11:15:24.766Z,12.35
2022-12-11T11:18:51.830Z,16.60
2022-12-11T11:22:04.842Z,14.03
2022-12-11T11:25:17.791Z,16.63
2022-12-11T11:28:32.833Z,13.00
2022-12-11T11:31:56.952Z,17.27
2022-12-11T11:34:56.884Z,16.95
2022-12-11T11:38:25.859Z,13.33
2022-12-11T11:41:37.850Z,14.50
2022-12-11T11:45:04.935Z,16.57
2022-12-11T11:48:17.931Z,16.23
2022-12-11T11:51:45.944Z,14.53
2022-12-11T11:54:57.888Z,15.40
2022-12-11T11:58:21.998Z,19.77
2022-12-11T12:01:46.995Z,14.90
2022-12-11T12:05:14.961Z,15.53
2022-12-11T12:08:28.032Z,18.07
2022-12-11T12:11:53.088Z,14.30
2022-12-11T12:15:05.978Z,13.47
2022-12-11T12:18:34.047Z,18.57
2022-12-11T12:21:48.030Z,17.53
2022-12-11T12:25:13.421Z,14.00
2022-12-11T12:28:24.992Z,16.10
2022-12-11T12:31:57.085Z,14.97
2022-12-11T12:35:13.372Z,19.00
2022-12-11T12:38:38.281Z,18.30
2022-12-11T12:41:51.147Z,18.00
2022-12-11T12:45:18.042Z,16.27
2022-12-11T12:48:30.117Z,14.77
2022-12-11T12:51:57.079Z,16.00
2022-12-11T12:55:27.272Z,13.53
2022-12-11T12:58:52.115Z,16.10
2022-12-11T13:02:07.343Z,12.30
2022-12-11T13:05:32.180Z,13.17
2022-12-11T13:08:50.191Z,14.60
2022-12-11T13:12:14.208Z,17.43
2022-12-11T13:15:26.204Z,16.20
2022-12-11T13:18:56.246Z,19.70
2022-12-11T13:21:56.222Z,14.60
2022-12-11T13:25:23.183Z,15.33
2022-12-11T13:28:43.269Z,13.20
2022-12-11T13:32:12.390Z,14.43
2022-12-11T13:35:25.336Z,16.07
2022-12-11T13:38:50.299Z,17.53
2022-12-11T13:42:07.392Z,14.03
2022-12-11T13:45:21.438Z,15.30
2022-12-11T13:48:36.396Z,17.07
2022-12-11T13:51:53.262Z,18.83
2022-12-11T13:55:05.391Z,14.67
2022-12-11T13:58:40.436Z,13.70
2022-12-11T14:01:52.528Z,13.43
2022-12-11T14:05:17.557Z,14.85
2022-12-11T14:08:30.452Z,13.20
2022-12-11T14:11:56.984Z,15.80
2022-12-11T14:15:08.423Z,15.90
2022-12-11T14:18:33.443Z,13.57
2022-12-11T14:21:45.444Z,16.17
2022-12-11T14:25:14.859Z,14.45
2022-12-11T14:28:14.443Z,18.23
2022-12-11T14:31:41.556Z,13.67
2022-12-11T14:35:05.606Z,18.83
2022-12-11T14:38:31.434Z,14.93
2022-12-11T14:41:44.502Z,16.97
2022-12-11T14:45:12.622Z,14.93
2022-12-11T14:48:29.631Z,14.57
2022-12-11T14:51:53.634Z,16.57
2022-12-11T14:55:10.591Z,12.53
2022-12-11T14:58:39.494Z,15.47
2022-12-11T15:01:51.759Z,15.60
2022-12-11T15:05:28.807Z,11.57
2022-12-11T15:08:42.587Z,13.60
2022-12-11T15:12:07.606Z,16.25
2022-12-11T15:15:19.637Z,16.15
2022-12-11T15:18:47.694Z,14.37
2022-12-11T15:22:01.660Z,14.27
2022-12-11T15:25:25.689Z,14.05
2022-12-11T15:28:47.647Z,14.20
2022-12-11T15:32:23.655Z,13.80
2022-12-11T15:35:45.631Z,12.30
2022-12-11T15:39:12.734Z,13.67
2022-12-11T15:42:27.697Z,12.50
2022-12-11T15:45:52.745Z,13.57
2022-12-11T15:48:52.737Z,11.03
2022-12-11T15:52:05.713Z,12.90
2022-12-11T15:55:22.806Z,12.53
2022-12-11T15:58:46.729Z,13.07
2022-12-11T16:01:58.833Z,13.23
2022-12-11T16:05:14.952Z,14.00
2022-12-11T16:08:15.840Z,13.00
2022-12-11T16:11:42.802Z,11.17
2022-12-11T16:14:43.731Z,10.50
2022-12-11T16:17:56.917Z,11.13
2022-12-11T16:21:09.847Z,12.05
2022-12-11T16:24:22.909Z,13.17
2022-12-11T16:27:36.811Z,12.77
2022-12-11T16:31:03.930Z,11.37
2022-12-11T16:34:04.890Z,11.63
2022-12-11T16:37:30.005Z,11.05
2022-12-11T16:43:51.837Z,10.70
2022-12-11T16:47:15.787Z,11.60
2022-12-11T16:50:27.869Z,10.95
2022-12-11T16:53:39.875Z,11.50
2022-12-11T16:56:39.842Z,10.27
2022-12-11T17:00:07.763Z,12.65
2022-12-11T17:03:11.642Z,12.83
2022-12-11T17:06:42.585Z,10.97
2022-12-11T17:09:58.644Z,11.73
2022-12-11T17:13:15.577Z,11.10
2022-12-11T17:16:33.665Z,11.35
2022-12-11T17:19:52.540Z,10.03
2022-12-11T17:22:56.669Z,9.93
2022-12-11T17:26:27.654Z,11.93
2022-12-11T17:29:31.680Z,11.00
2022-12-11T17:33:03.704Z,11.55
2022-12-11T17:36:07.747Z,11.70
2022-12-11T17:39:38.695Z,12.57
2022-12-11T17:42:42.744Z,11.60
2022-12-11T17:46:13.727Z,10.87
2022-12-11T17:49:33.697Z,11.30
2022-12-11T17:52:50.658Z,11.30
2022-12-11T17:56:06.485Z,13.60
2022-12-11T17:59:25.653Z,9.90
2022-12-11T18:02:29.716Z,10.60
2022-12-11T18:06:01.806Z,10.17
2022-12-11T18:09:09.517Z,11.27
2022-12-11T18:12:26.739Z,8.80
2022-12-11T18:15:30.724Z,11.53
2022-12-11T18:18:50.849Z,10.47
2022-12-11T18:22:08.894Z,10.23
2022-12-11T18:25:37.754Z,10.50
2022-12-11T18:28:41.879Z,14.20
2022-12-11T18:32:01.610Z,10.70
2022-12-11T18:35:06.001Z,10.63
2022-12-11T18:38:39.833Z,11.17
2022-12-11T18:41:58.291Z,9.17
2022-12-11T18:45:17.887Z,11.93
2022-12-11T18:48:33.943Z,8.43
2022-12-11T18:51:50.854Z,10.97
2022-12-11T18:55:08.022Z,11.17
2022-12-11T18:58:42.821Z,11.27
2022-12-11T19:01:50.957Z,9.00
2022-12-11T19:05:15.200Z,9.27
2022-12-11T19:08:19.054Z,10.27
2022-12-11T19:11:49.056Z,11.87
2022-12-11T19:15:05.104Z,7.20
2022-12-11T19:18:36.033Z,9.30
2022-12-11T19:21:52.026Z,10.40
2022-12-11T19:25:11.183Z,9.80
2022-12-11T19:28:29.069Z,10.05
2022-12-11T19:31:57.253Z,10.90
2022-12-11T19:35:00.993Z,9.20
2022-12-11T19:38:30.201Z,10.35
2022-12-11T19:41:46.115Z,9.60
2022-12-11T19:45:23.478Z,13.33
2022-12-11T19:48:42.926Z,10.10
2022-12-11T19:52:04.862Z,11.53
2022-12-11T19:55:47.813Z,10.57
2022-12-11T19:59:28.389Z,11.00
2022-12-11T20:03:09.073Z,11.37
2022-12-11T20:06:30.104Z,10.00
2022-12-11T20:09:44.887Z,8.83
2022-12-11T20:13:05.234Z,11.23
2022-12-11T20:16:09.237Z,10.85
2022-12-11T20:19:44.254Z,8.65
2022-12-11T20:22:48.370Z,10.17
2022-12-11T20:26:07.149Z,7.63
2022-12-11T20:29:23.115Z,8.47
2022-12-11T20:32:40.215Z,9.50
2022-12-11T20:35:57.352Z,12.15
2022-12-11T20:39:28.218Z,9.20
2022-12-11T20:42:32.261Z,11.15
2022-12-11T20:45:51.215Z,10.47
2022-12-11T20:49:07.198Z,8.90
2022-12-11T20:52:42.305Z,9.17
2022-12-11T20:56:10.364Z,10.57
2022-12-11T20:59:29.287Z,10.60
2022-12-11T21:02:33.327Z,11.45
2022-12-11T21:05:49.354Z,10.73
2022-12-11T21:09:11.249Z,9.70
2022-12-11T21:12:31.814Z,8.03
2022-12-11T21:15:34.381Z,8.53
2022-12-11T21:18:50.336Z,8.67
2022-12-11T21:22:06.523Z,9.20
2022-12-11T21:25:40.186Z,10.50
2022-12-11T21:29:03.093Z,11.63
2022-12-11T21:32:42.630Z,7.77
2022-12-11T21:36:02.413Z,8.90
2022-12-11T21:39:38.945Z,9.95
2022-12-11T21:42:53.449Z,9.40
2022-12-11T21:46:10.585Z,10.00
2022-12-11T21:49:14.435Z,10.60
2022-12-11T21:52:48.429Z,11.27
2022-12-11T21:56:06.709Z,9.80
2022-12-11T21:59:40.420Z,8.67
2022-12-11T22:02:44.310Z,10.33
2022-12-11T22:06:03.455Z,9.23
2022-12-11T22:09:19.449Z,9.30
2022-12-11T22:12:48.574Z,9.77
2022-12-11T22:16:05.474Z,9.35
2022-12-11T22:19:22.465Z,9.55
2022-12-11T22:22:38.480Z,9.00
2022-12-11T22:25:55.568Z,9.03
2022-12-11T22:29:17.148Z,9.00
2022-12-11T22:32:58.097Z,10.73
2022-12-11T22:36:25.934Z,11.07
2022-12-11T22:40:08.217Z,10.23
2022-12-11T22:43:25.634Z,9.20
2022-12-11T22:46:56.791Z,11.07
2022-12-11T22:50:13.681Z,9.97
2022-12-11T22:53:29.687Z,9.33
2022-12-11T22:56:51.632Z,9.50
2022-12-11T23:00:08.877Z,9.15
2022-12-11T23:03:27.797Z,8.85
2022-12-11T23:06:57.670Z,9.87
2022-12-11T23:10:02.556Z,11.97
2022-12-11T23:13:37.008Z,10.77
2022-12-11T23:17:05.428Z,9.33
2022-12-11T23:20:36.863Z,9.45
2022-12-11T23:23:56.656Z,11.00
2022-12-11T23:27:29.562Z,8.35
2022-12-11T23:30:54.691Z,8.00
2022-12-11T23:34:30.979Z,10.83
2022-12-11T23:37:34.709Z,10.10
2022-12-11T23:41:12.790Z,10.37
2022-12-11T23:44:19.775Z,10.03
2022-12-11T23:47:51.913Z,9.45
2022-12-11T23:51:19.805Z,10.00
2022-12-11T23:54:36.868Z,9.13
2022-12-11T23:57:56.734Z,8.23
